Main page
METAR-TAF:

METAR-TAF

Airports :

Karlovy Vary Airport

Karlovy Vary, Czech Republic

latitude: 50-12N, longitude: 012-55E, elevation: 603 m

Current weather observation

The report was made 26 minutes ago, at 13:00 UTC
Wind 4 kt from the South/Southeast, varying between East/Southeast and South
Temperature 18°C
Humidity 22%
Pressure 1021 hPa
Visibility 10 km or more
no clouds below 1500 m and no cumulonimbus

METAR: LKKV 211300Z 16004KT 120V190 CAVOK 18/M04 Q1021

Time: 15:26 (13:26 UTC)

Forecast

The report was made 2 hours and 26 minutes ago, at 11:00 UTC
Forecast valid from 21 at 12 UTC to 22 at 18 UTC
Wind 8 kt from the Northeast
Visibility 10 km or more
no clouds below 1500 m and no cumulonimbus
Temporary
from 21 at 12 UTC to 22 at 04 UTC
Wind 4 kt from the Southeast
Temporary
from 22 at 09 UTC to 22 at 18 UTC
Wind 14 kt from the East/Northeast with gusts up to 26 kt

TAF: LKKV 211100Z 2112/2218 04008KT CAVOK TEMPO 2112/2204 14004KT TEMPO 2209/2218 07014G26KT

Weather observations and forecasts of more than 4000 airports (METAR and TAF reports).

The available stations are represented by yellow and red dots on the map.

Hover mouse over dot to see the name of the station.

Then click to see weather observations and forecasts.

To change the map : click on the green buttons with a black cross to zoom in, on the green button with a dash to zoom out, or on the green arrows for adjacent maps.


METAR-TAF: